Hauptseite
METAR-TAF:

METAR-TAF

Flughäfen :

Vilanculos, Mosambik

Breite: 22-00S, Länge: 035-19E, Höhe: 20 m

Beobachtung

Neuester Wetterbericht von vor 9 Stunden und 38 Minuten, um 19:00 UTC
Wind 12 kt aus Ost/Südost
Temperatur 29°C
Luftfeuchtigkeit 74%
Luftdruck 1011 hPa
Sichtweite 10 km oder mehr
Aufgelockert bewölkt in der Höhe von 2000 ft

METAR: FQVL 211900Z 11012KT 9999 SCT020 29/24 Q1011

Zeit: 06:38 (04:38 UTC)

Prognose

Neuester Wetterbericht von vor 6 Stunden und 38 Minuten, um 22:00 UTC
Gültige Prognose vom 22 um 00 UTC bis 23 um 00 UTC
Wind 12 kt aus Ost/Südost
Sichtweite 10 km oder mehr

TAF: FQVL 212200Z 2200/2300 11012KT 9999 SC CHECK TEXT NEW ENDING ADDED LFLFYFYX

Wetterbeobachtungen und Prognosen von mehr als 4000 Flughäfen (METAR und TAF Bericht).

Die verfügbaren Stationen werden durch gelbe und rote Markierungen auf der Karte dargestellt.

Führen Sie die Maus auf sie, um den Namen der Station zu sehen.

Darauf klicken, um die Beobachtung von Wetterbeobachtungen und Prognosen zu sehen.

Um die Karte zu ändern : klicken Sie auf den grünen Tasten mit einem schwarzen Kreuz Zum Vergrößern, auf den grünen Button mit einem Gedankenstrich zu verkleinern, oder auf die grünen Pfeile für benachbarte Karten.


METAR-TAF: